Airport View

Enter ICAO identifier to see the current METAR for that AWOS.

KFNL for example

KPIT 301251Z 22005KT 10SM FEW045 SCT250 17/11 A3005 RMK AO2 SLP182 T01670111

30 Jul 2014 13:06

Phone: 412-472-0145

Other Area AWOS: KAGC - KBVI - KBTP - KAFJ

TAF KPIT 301120Z 3012/3118 VRB03KT P6SM BKN060 FM301700 25012KT P6SM VCSH BKN035 FM310300 23004KT P6SM SCT050 FM310900 23006KT P6SM BKN035